createdAt,value
2018-03-22T00:00:27.450Z,0
2018-03-22T00:01:07.864Z,0
2018-03-22T00:01:48.339Z,0
2018-03-22T00:02:28.633Z,0
2018-03-22T00:03:09.077Z,0
2018-03-22T00:03:49.448Z,0
2018-03-22T00:04:29.878Z,0
2018-03-22T00:05:10.269Z,0
2018-03-22T00:05:50.659Z,0
2018-03-22T00:06:31.039Z,0
2018-03-22T00:07:11.473Z,0
2018-03-22T00:07:51.862Z,0
2018-03-22T00:08:32.239Z,0
2018-03-22T00:09:12.660Z,0
2018-03-22T00:09:53.023Z,0
2018-03-22T00:10:33.421Z,0
2018-03-22T00:11:13.877Z,0
2018-03-22T00:11:54.253Z,0
2018-03-22T00:12:34.647Z,0
2018-03-22T00:13:15.043Z,0
2018-03-22T00:13:55.420Z,0
2018-03-22T00:14:35.825Z,0
2018-03-22T00:15:16.289Z,0
2018-03-22T00:15:56.635Z,0
2018-03-22T00:16:37.060Z,0
2018-03-22T00:17:17.442Z,0
2018-03-22T00:17:57.867Z,0
2018-03-22T00:18:38.263Z,0
2018-03-22T00:19:18.640Z,0
2018-03-22T00:19:59.090Z,0
2018-03-22T00:20:39.517Z,0
2018-03-22T00:21:19.904Z,0
2018-03-22T00:22:00.330Z,0
2018-03-22T00:22:40.686Z,0
2018-03-22T00:23:21.065Z,0
2018-03-22T00:24:01.451Z,0
2018-03-22T00:24:41.874Z,0
2018-03-22T00:25:22.245Z,0
2018-03-22T00:26:02.613Z,0
2018-03-22T00:26:43.003Z,0
2018-03-22T00:27:23.428Z,0
2018-03-22T00:28:03.852Z,0
2018-03-22T00:28:44.223Z,0
2018-03-22T00:29:24.633Z,0
2018-03-22T00:30:05.084Z,0
2018-03-22T00:30:45.463Z,0
2018-03-22T00:31:25.848Z,0
2018-03-22T00:32:06.270Z,0
2018-03-22T00:32:46.677Z,0
2018-03-22T00:33:27.053Z,0
2018-03-22T00:34:07.494Z,0
2018-03-22T00:34:47.838Z,0
2018-03-22T00:35:28.222Z,0
2018-03-22T00:41:01.353Z,0
2018-03-22T00:41:41.698Z,0
2018-03-22T00:42:22.086Z,0
2018-03-22T00:43:02.549Z,0
2018-03-22T00:43:42.941Z,0
2018-03-22T00:44:23.343Z,0
2018-03-22T00:45:03.712Z,0
2018-03-22T00:45:44.126Z,0
2018-03-22T00:46:24.532Z,0
2018-03-22T00:47:04.907Z,0
2018-03-22T00:47:45.314Z,0
2018-03-22T00:48:25.732Z,0
2018-03-22T00:49:06.125Z,0
2018-03-22T00:49:46.558Z,0
2018-03-22T00:50:26.990Z,0
2018-03-22T00:51:07.366Z,0
2018-03-22T00:51:47.736Z,0
2018-03-22T00:55:38.260Z,0
2018-03-22T00:56:18.661Z,0
2018-03-22T00:56:59.060Z,0
2018-03-22T00:57:39.543Z,0
2018-03-22T00:58:19.888Z,0
2018-03-22T00:59:00.274Z,0
2018-03-22T00:59:40.683Z,0
2018-03-22T01:00:21.086Z,0
2018-03-22T01:01:01.428Z,0
2018-03-22T01:01:41.799Z,0
2018-03-22T01:02:22.201Z,0
2018-03-22T01:03:02.580Z,0
2018-03-22T01:03:42.976Z,0
2018-03-22T01:04:23.417Z,0
2018-03-22T01:05:03.822Z,0
2018-03-22T01:05:44.179Z,0
2018-03-22T01:06:24.576Z,0
2018-03-22T01:07:04.991Z,0
2018-03-22T01:07:45.456Z,0
2018-03-22T01:08:25.855Z,0
2018-03-22T01:09:06.240Z,0
2018-03-22T01:09:46.653Z,0
2018-03-22T01:10:27.018Z,0
2018-03-22T01:11:07.415Z,0
2018-03-22T01:11:47.834Z,0
2018-03-22T01:12:28.254Z,0
2018-03-22T01:13:08.619Z,0
2018-03-22T01:13:49.051Z,0
2018-03-22T01:14:29.422Z,0
2018-03-22T01:15:09.841Z,0
2018-03-22T01:15:50.254Z,0
2018-03-22T01:16:30.665Z,0
2018-03-22T01:17:11.033Z,0
2018-03-22T01:17:51.429Z,0
2018-03-22T01:18:31.845Z,0
2018-03-22T01:19:12.279Z,0
2018-03-22T01:19:52.698Z,0
2018-03-22T01:20:33.075Z,0
2018-03-22T01:21:13.462Z,0
2018-03-22T01:21:53.856Z,0
2018-03-22T01:22:34.244Z,0
2018-03-22T01:23:14.738Z,0
2018-03-22T01:23:55.040Z,0
2018-03-22T01:24:35.448Z,0
2018-03-22T01:25:15.832Z,0
2018-03-22T01:25:56.230Z,0
2018-03-22T01:26:36.646Z,0
2018-03-22T01:27:17.035Z,0
2018-03-22T01:27:57.442Z,0
2018-03-22T01:28:37.846Z,0
2018-03-22T01:29:18.245Z,0
2018-03-22T01:29:58.647Z,0
2018-03-22T01:30:39.072Z,0
2018-03-22T01:31:19.477Z,0
2018-03-22T01:31:59.874Z,0
2018-03-22T01:32:40.229Z,0
2018-03-22T01:33:20.649Z,0
2018-03-22T01:34:01.032Z,0
2018-03-22T01:34:41.453Z,0
2018-03-22T01:35:21.805Z,0
2018-03-22T01:36:02.300Z,0
2018-03-22T01:36:42.635Z,0
2018-03-22T01:37:23.049Z,0
2018-03-22T01:38:03.424Z,0
2018-03-22T01:38:43.866Z,0
2018-03-22T01:39:24.253Z,0
2018-03-22T01:40:04.684Z,0
2018-03-22T01:40:45.087Z,0
2018-03-22T01:41:25.464Z,0
2018-03-22T01:42:05.880Z,0
2018-03-22T01:42:46.269Z,0
2018-03-22T01:43:26.636Z,0
2018-03-22T01:44:07.065Z,0
2018-03-22T01:44:47.431Z,0
2018-03-22T01:45:27.884Z,0
2018-03-22T01:46:08.288Z,0
2018-03-22T01:46:48.684Z,0
2018-03-22T01:47:29.077Z,0
2018-03-22T01:48:09.394Z,0
2018-03-22T01:48:49.798Z,0
2018-03-22T01:49:30.172Z,0
2018-03-22T01:50:10.589Z,0
2018-03-22T01:50:51.009Z,0
2018-03-22T01:53:29.257Z,0
2018-03-22T01:54:09.714Z,0
2018-03-22T01:54:50.063Z,0
2018-03-22T01:55:30.449Z,0
2018-03-22T01:56:10.854Z,0
2018-03-22T01:56:51.274Z,0
2018-03-22T01:57:31.667Z,0
2018-03-22T01:58:12.073Z,0
2018-03-22T01:58:52.443Z,0
2018-03-22T01:59:32.837Z,0
2018-03-22T02:00:13.238Z,0
2018-03-22T02:00:53.614Z,0
2018-03-22T02:01:34.007Z,0
2018-03-22T02:02:14.394Z,0
2018-03-22T02:02:54.843Z,0
2018-03-22T02:03:35.193Z,0
2018-03-22T02:04:15.560Z,0
2018-03-22T02:04:56.015Z,0
2018-03-22T02:05:36.365Z,0
2018-03-22T02:06:16.758Z,0
2018-03-22T02:06:57.207Z,0
2018-03-22T02:07:37.578Z,0
2018-03-22T02:08:18.000Z,0
2018-03-22T02:08:58.398Z,0
2018-03-22T02:09:38.805Z,0
2018-03-22T02:10:19.223Z,0
2018-03-22T02:10:59.598Z,0
2018-03-22T02:11:39.986Z,0
2018-03-22T02:12:20.375Z,0
2018-03-22T02:13:00.783Z,0
2018-03-22T02:13:41.149Z,0
2018-03-22T02:14:21.584Z,0
2018-03-22T02:15:01.944Z,0
2018-03-22T02:15:42.359Z,0
2018-03-22T02:16:22.781Z,0
2018-03-22T02:17:03.128Z,0
2018-03-22T02:17:43.511Z,0
2018-03-22T02:18:23.873Z,0
2018-03-22T02:19:04.332Z,0
2018-03-22T02:19:44.760Z,0
2018-03-22T02:20:25.122Z,0
2018-03-22T02:21:05.514Z,0
2018-03-22T02:21:45.890Z,0
2018-03-22T02:22:26.307Z,0
2018-03-22T02:23:06.703Z,0
2018-03-22T02:23:47.105Z,0
2018-03-22T02:24:27.505Z,0
2018-03-22T02:25:07.913Z,0
2018-03-22T02:25:48.267Z,0
2018-03-22T02:26:28.698Z,0
2018-03-22T02:27:09.161Z,0
2018-03-22T02:27:49.623Z,0
2018-03-22T02:28:30.018Z,0
2018-03-22T02:31:08.274Z,0
2018-03-22T02:31:48.705Z,0
2018-03-22T02:32:29.127Z,0
2018-03-22T02:33:09.485Z,0
2018-03-22T02:33:49.891Z,0
2018-03-22T02:34:30.312Z,0
2018-03-22T02:35:10.718Z,0
2018-03-22T02:35:51.108Z,0
2018-03-22T02:36:31.512Z,0
2018-03-22T02:37:11.929Z,0
2018-03-22T02:37:52.345Z,0
2018-03-22T02:38:32.708Z,0
2018-03-22T02:39:13.112Z,0
2018-03-22T02:39:53.541Z,0
2018-03-22T02:40:33.928Z,0
2018-03-22T02:41:14.310Z,0
2018-03-22T02:41:54.726Z,0
2018-03-22T02:42:35.149Z,0
2018-03-22T02:43:15.524Z,0
2018-03-22T02:43:55.958Z,0
2018-03-22T02:44:36.318Z,0
2018-03-22T02:45:16.713Z,0
2018-03-22T02:45:57.196Z,0
2018-03-22T02:46:37.538Z,0
2018-03-22T02:47:17.949Z,0
2018-03-22T02:47:58.336Z,0
2018-03-22T02:48:38.726Z,0
2018-03-22T02:49:19.103Z,0
2018-03-22T02:49:59.488Z,0
2018-03-22T02:50:39.900Z,0
2018-03-22T02:51:20.302Z,0
2018-03-22T02:52:00.699Z,0
2018-03-22T02:52:41.086Z,0
2018-03-22T02:53:21.538Z,0
2018-03-22T02:54:01.893Z,0
2018-03-22T02:54:42.347Z,0
2018-03-22T02:55:22.745Z,0
2018-03-22T02:56:03.187Z,0
2018-03-22T02:56:43.570Z,0
2018-03-22T02:57:23.934Z,0
2018-03-22T02:58:04.322Z,0
2018-03-22T02:58:44.699Z,0
2018-03-22T02:59:25.134Z,0
2018-03-22T03:00:05.520Z,0
2018-03-22T03:00:45.940Z,0
2018-03-22T03:01:26.323Z,0
2018-03-22T03:02:06.755Z,0
2018-03-22T03:02:47.202Z,0
2018-03-22T03:03:27.581Z,0
2018-03-22T03:04:08.015Z,0
2018-03-22T03:04:48.410Z,0
2018-03-22T03:05:28.781Z,0
2018-03-22T03:06:09.190Z,0
2018-03-22T03:06:49.562Z,0
2018-03-22T03:07:29.951Z,0
2018-03-22T03:08:10.403Z,0
2018-03-22T03:08:50.747Z,0
2018-03-22T03:09:31.189Z,0
2018-03-22T03:10:11.569Z,0
2018-03-22T03:10:51.951Z,0
2018-03-22T03:11:32.355Z,0
2018-03-22T03:12:12.804Z,0
2018-03-22T03:12:53.195Z,0
2018-03-22T03:13:33.605Z,0
2018-03-22T03:14:13.950Z,0
2018-03-22T03:14:54.373Z,0
2018-03-22T03:15:34.745Z,0
2018-03-22T03:16:15.189Z,0
2018-03-22T03:16:55.576Z,0
2018-03-22T03:17:36.002Z,0
2018-03-22T03:18:16.407Z,0
2018-03-22T03:18:56.804Z,0
2018-03-22T03:19:37.216Z,0
2018-03-22T03:20:17.632Z,0
2018-03-22T03:20:58.044Z,0
2018-03-22T03:21:38.451Z,0
2018-03-22T03:22:18.837Z,0
2018-03-22T03:22:59.276Z,0
2018-03-22T03:23:39.717Z,0
2018-03-22T03:24:20.121Z,0
2018-03-22T03:25:00.594Z,0
2018-03-22T03:25:40.913Z,0
2018-03-22T03:26:21.352Z,0
2018-03-22T03:27:01.772Z,0
2018-03-22T03:27:42.206Z,0
2018-03-22T03:28:22.553Z,0
2018-03-22T03:29:02.927Z,0
2018-03-22T03:29:43.358Z,0
2018-03-22T03:30:23.827Z,0
2018-03-22T03:31:04.213Z,0
2018-03-22T03:31:44.574Z,0
2018-03-22T03:32:24.954Z,0
2018-03-22T03:33:05.369Z,0
2018-03-22T03:33:45.785Z,0
2018-03-22T03:34:26.207Z,0
2018-03-22T03:35:06.583Z,0
2018-03-22T03:35:46.977Z,0
2018-03-22T03:36:27.437Z,0
2018-03-22T03:37:07.822Z,0
2018-03-22T03:37:48.207Z,0
2018-03-22T03:38:28.598Z,0
2018-03-22T03:39:08.991Z,0
2018-03-22T03:39:49.396Z,0
2018-03-22T03:40:29.796Z,0
2018-03-22T03:41:10.168Z,0
2018-03-22T03:41:50.580Z,0
2018-03-22T03:42:30.957Z,0
2018-03-22T03:43:11.379Z,0
2018-03-22T03:43:51.755Z,0
2018-03-22T03:44:32.195Z,0
2018-03-22T03:45:12.559Z,0
2018-03-22T03:45:52.956Z,0
2018-03-22T03:46:33.349Z,0
2018-03-22T03:47:13.714Z,0
2018-03-22T03:47:54.161Z,0
2018-03-22T03:48:34.513Z,0
2018-03-22T03:49:14.959Z,0
2018-03-22T03:49:55.337Z,0
2018-03-22T03:52:23.481Z,0
2018-03-22T03:53:03.924Z,0
2018-03-22T03:53:44.325Z,0
2018-03-22T03:54:24.718Z,0
2018-03-22T03:55:05.132Z,0
2018-03-22T03:55:45.532Z,0
2018-03-22T03:56:25.907Z,0
2018-03-22T03:57:06.295Z,0
2018-03-22T03:57:46.696Z,0
2018-03-22T03:58:27.117Z,0
2018-03-22T03:59:07.530Z,0
2018-03-22T03:59:47.926Z,0
2018-03-22T04:00:28.318Z,0
2018-03-22T04:01:08.717Z,0
2018-03-22T04:01:49.113Z,0
2018-03-22T04:02:29.493Z,0
2018-03-22T04:03:09.901Z,0
2018-03-22T04:03:50.330Z,0
2018-03-22T04:04:30.712Z,0
2018-03-22T04:05:11.096Z,0
2018-03-22T04:05:51.476Z,0
2018-03-22T04:06:31.879Z,0
2018-03-22T04:07:12.268Z,0
2018-03-22T04:51:43.486Z,0
2018-03-22T04:52:23.881Z,0
2018-03-22T04:53:04.299Z,0
2018-03-22T04:53:44.664Z,0
2018-03-22T04:54:25.123Z,0
2018-03-22T04:55:05.494Z,0
2018-03-22T04:55:45.891Z,0
2018-03-22T04:56:26.304Z,0
2018-03-22T04:57:06.658Z,0
2018-03-22T04:57:47.044Z,0
2018-03-22T04:58:27.497Z,0
2018-03-22T04:59:07.896Z,0
2018-03-22T04:59:48.330Z,0
2018-03-22T05:00:28.769Z,0
2018-03-22T05:01:09.114Z,0
2018-03-22T05:01:49.548Z,0
2018-03-22T05:02:29.980Z,0
2018-03-22T05:03:10.376Z,0
2018-03-22T05:03:50.789Z,0
2018-03-22T05:04:31.240Z,0
2018-03-22T05:05:11.643Z,0
2018-03-22T05:05:52.063Z,0
2018-03-22T05:06:32.404Z,0
2018-03-22T05:07:12.812Z,0
2018-03-22T05:07:53.219Z,0
2018-03-22T05:08:33.619Z,0
2018-03-22T05:09:14.076Z,0
2018-03-22T05:09:54.454Z,0
2018-03-22T05:10:34.843Z,0
2018-03-22T05:11:15.207Z,0
2018-03-22T05:11:55.619Z,0
2018-03-22T05:12:36.023Z,0
2018-03-22T05:13:16.415Z,0
2018-03-22T05:13:56.843Z,0
2018-03-22T05:14:37.240Z,0
2018-03-22T05:15:17.633Z,0
2018-03-22T05:15:58.058Z,0
2018-03-22T05:16:38.416Z,0
2018-03-22T05:17:18.845Z,0
2018-03-22T05:17:59.230Z,0
2018-03-22T05:18:39.672Z,0
2018-03-22T05:19:20.070Z,0
2018-03-22T05:20:00.440Z,0
2018-03-22T05:20:40.849Z,0
2018-03-22T05:21:21.237Z,0
2018-03-22T05:22:01.673Z,0
2018-03-22T05:22:42.542Z,0
2018-03-22T05:23:22.941Z,0
2018-03-22T05:24:03.350Z,0
2018-03-22T05:24:43.704Z,0
2018-03-22T05:25:24.097Z,0
2018-03-22T05:26:04.545Z,0
2018-03-22T05:26:44.969Z,0
2018-03-22T05:27:25.325Z,0
2018-03-22T05:28:05.782Z,0
2018-03-22T05:28:53.148Z,0
2018-03-22T05:29:33.560Z,0
2018-03-22T05:30:13.950Z,0
2018-03-22T05:30:54.395Z,0
2018-03-22T05:31:34.812Z,0
2018-03-22T05:32:15.205Z,0
2018-03-22T05:32:55.566Z,0
2018-03-22T05:33:35.974Z,0
2018-03-22T05:34:16.386Z,0
2018-03-22T05:34:56.788Z,0
2018-03-22T05:35:37.152Z,0
2018-03-22T05:36:17.609Z,0
2018-03-22T05:36:57.984Z,0
2018-03-22T05:37:38.413Z,0
2018-03-22T05:38:18.788Z,0
2018-03-22T05:38:59.159Z,0
2018-03-22T05:39:39.577Z,0
2018-03-22T05:40:20.057Z,0
2018-03-22T05:41:00.471Z,0
2018-03-22T05:41:40.844Z,0
2018-03-22T05:42:21.263Z,0
2018-03-22T05:43:01.675Z,0
2018-03-22T05:43:42.043Z,0
2018-03-22T05:44:22.491Z,0
2018-03-22T05:45:02.880Z,0
2018-03-22T05:45:43.297Z,0
2018-03-22T05:46:23.712Z,0
2018-03-22T05:47:04.081Z,0
2018-03-22T05:47:44.525Z,0
2018-03-22T05:48:24.917Z,0
2018-03-22T05:49:05.300Z,0
2018-03-22T05:49:45.727Z,0
2018-03-22T05:50:26.116Z,0
2018-03-22T05:51:06.512Z,0
2018-03-22T05:51:46.910Z,0
2018-03-22T05:52:27.307Z,0
2018-03-22T05:53:07.733Z,0
2018-03-22T05:53:48.141Z,0
2018-03-22T05:54:28.523Z,0
2018-03-22T05:55:08.938Z,0
2018-03-22T05:55:49.394Z,0
2018-03-22T05:56:29.836Z,0
2018-03-22T05:57:10.279Z,0
2018-03-22T05:57:50.655Z,0
2018-03-22T05:58:31.077Z,0
2018-03-22T05:59:11.507Z,0
2018-03-22T05:59:51.882Z,0
2018-03-22T06:00:32.326Z,0
2018-03-22T06:01:12.724Z,0
2018-03-22T06:01:53.126Z,0
2018-03-22T06:02:33.514Z,0
2018-03-22T06:03:13.905Z,0
2018-03-22T06:03:54.296Z,0
2018-03-22T06:04:34.680Z,0
2018-03-22T06:05:15.103Z,0
2018-03-22T06:05:55.501Z,0
2018-03-22T06:06:35.888Z,0
2018-03-22T06:07:16.319Z,0
2018-03-22T06:07:56.747Z,0
2018-03-22T06:08:37.152Z,0
2018-03-22T06:09:17.576Z,0
2018-03-22T06:09:57.964Z,0
2018-03-22T06:10:38.387Z,0
2018-03-22T06:11:18.860Z,0
2018-03-22T06:11:59.248Z,0
2018-03-22T06:12:39.664Z,0
2018-03-22T06:13:20.085Z,0
2018-03-22T06:14:00.508Z,0
2018-03-22T06:14:40.926Z,0
2018-03-22T06:15:21.403Z,0
2018-03-22T06:16:01.847Z,0
2018-03-22T06:16:42.262Z,0
2018-03-22T06:17:22.665Z,0
2018-03-22T06:18:03.039Z,0
2018-03-22T06:18:43.503Z,0
2018-03-22T06:19:23.896Z,0
2018-03-22T06:20:04.302Z,0
2018-03-22T06:20:44.696Z,0
2018-03-22T06:21:25.372Z,0
2018-03-22T06:22:05.723Z,0
2018-03-22T06:22:46.154Z,0
2018-03-22T06:23:26.547Z,0
2018-03-22T06:24:07.004Z,0
2018-03-22T06:24:48.124Z,0
2018-03-22T06:25:28.600Z,0
2018-03-22T06:26:08.960Z,0
2018-03-22T06:26:49.361Z,0
2018-03-22T06:27:29.785Z,0
2018-03-22T06:28:10.232Z,0
2018-03-22T06:28:50.721Z,0
2018-03-22T06:29:31.096Z,0
2018-03-22T06:30:11.495Z,0
2018-03-22T06:30:51.892Z,0
2018-03-22T06:31:32.301Z,0
2018-03-22T06:32:12.934Z,0
2018-03-22T06:32:53.484Z,0
2018-03-22T06:33:33.869Z,0
2018-03-22T06:34:14.674Z,0
2018-03-22T06:34:55.604Z,0
2018-03-22T06:35:36.136Z,0
2018-03-22T06:37:58.240Z,0
2018-03-22T06:38:38.702Z,0
2018-03-22T06:39:19.059Z,0
2018-03-22T06:39:59.495Z,0
2018-03-22T06:40:39.902Z,0
2018-03-22T06:41:21.634Z,0
2018-03-22T06:42:02.747Z,0
2018-03-22T06:42:49.144Z,0
2018-03-22T06:43:29.867Z,0
2018-03-22T06:44:10.343Z,0
2018-03-22T06:44:50.750Z,0
2018-03-22T06:45:31.910Z,0
2018-03-22T06:46:12.396Z,0
2018-03-22T06:46:56.305Z,0
2018-03-22T06:47:40.310Z,0
2018-03-22T06:48:23.294Z,0
2018-03-22T06:49:10.450Z,0
2018-03-22T06:49:53.578Z,0
2018-03-22T06:50:34.349Z,0
2018-03-22T06:51:18.728Z,0
2018-03-22T06:51:58.736Z,0
2018-03-22T06:52:39.113Z,0
2018-03-22T06:53:20.047Z,0
2018-03-22T06:54:02.164Z,0
2018-03-22T06:54:43.547Z,0
2018-03-22T06:55:26.348Z,0
2018-03-22T06:56:07.744Z,0
2018-03-22T06:56:48.776Z,0
2018-03-22T06:57:30.133Z,0
2018-03-22T06:58:10.725Z,0
2018-03-22T06:58:51.914Z,0
2018-03-22T06:59:32.162Z,0
2018-03-22T07:00:13.818Z,0
2018-03-22T07:00:54.970Z,0
2018-03-22T07:01:35.527Z,0
2018-03-22T07:02:17.322Z,0
2018-03-22T07:02:58.910Z,0
2018-03-22T07:03:39.923Z,0
2018-03-22T07:04:20.750Z,0
2018-03-22T07:05:01.151Z,0
2018-03-22T07:05:42.680Z,0
2018-03-22T07:06:23.627Z,0
2018-03-22T07:07:04.364Z,0
2018-03-22T07:07:46.624Z,0
2018-03-22T07:08:30.289Z,0
2018-03-22T07:09:10.728Z,0
2018-03-22T07:09:52.298Z,0
2018-03-22T07:10:33.170Z,0
2018-03-22T07:11:13.556Z,0
2018-03-22T07:11:54.469Z,5
2018-03-22T07:12:37.791Z,5
2018-03-22T07:13:17.886Z,0
2018-03-22T07:13:59.615Z,0
2018-03-22T07:14:40.366Z,0
2018-03-22T07:15:20.736Z,0
2018-03-22T07:16:02.676Z,0
2018-03-22T07:16:44.152Z,0
2018-03-22T07:17:25.090Z,5
2018-03-22T07:18:05.448Z,5
2018-03-22T07:18:46.484Z,0
2018-03-22T07:19:28.270Z,0
2018-03-22T07:20:10.296Z,0
2018-03-22T07:20:51.865Z,0
2018-03-22T07:21:32.432Z,5
2018-03-22T07:22:13.001Z,0
2018-03-22T07:22:56.111Z,5
2018-03-22T07:23:37.332Z,5
2018-03-22T07:24:18.089Z,5
2018-03-22T07:25:00.975Z,5
2018-03-22T07:25:41.568Z,5
2018-03-22T07:26:23.061Z,5
2018-03-22T07:27:03.712Z,5
2018-03-22T07:27:55.195Z,5
2018-03-22T07:28:35.769Z,5
2018-03-22T07:29:18.563Z,5
2018-03-22T07:29:58.899Z,5
2018-03-22T07:30:39.377Z,5
2018-03-22T07:31:22.346Z,0
2018-03-22T07:32:04.474Z,0
2018-03-22T07:32:45.106Z,0
2018-03-22T07:33:25.622Z,5
2018-03-22T07:34:07.168Z,0
2018-03-22T07:34:47.855Z,5
2018-03-22T07:35:28.713Z,5
2018-03-22T07:36:10.582Z,5
2018-03-22T07:36:50.885Z,5
2018-03-22T07:37:31.232Z,5
2018-03-22T07:38:12.740Z,5
2018-03-22T07:38:54.828Z,5
2018-03-22T07:39:35.235Z,10
2018-03-22T07:40:18.187Z,10
2018-03-22T07:40:59.097Z,5
2018-03-22T07:41:39.399Z,10
2018-03-22T07:42:19.842Z,10
2018-03-22T07:43:00.449Z,10
2018-03-22T07:43:53.568Z,10
2018-03-22T07:44:34.952Z,10
2018-03-22T07:45:17.589Z,10
2018-03-22T07:46:01.891Z,10
2018-03-22T07:46:42.316Z,10
2018-03-22T07:47:23.445Z,10
2018-03-22T07:48:06.940Z,5
2018-03-22T07:48:47.604Z,10
2018-03-22T07:49:28.674Z,10
2018-03-22T07:50:12.710Z,10
2018-03-22T07:50:55.748Z,10
2018-03-22T07:51:35.433Z,10
2018-03-22T07:52:16.100Z,10
2018-03-22T07:52:58.646Z,10
2018-03-22T07:53:41.248Z,10
2018-03-22T07:54:21.256Z,10
2018-03-22T07:55:02.423Z,10
2018-03-22T07:55:43.391Z,10
2018-03-22T07:56:25.856Z,10
2018-03-22T07:57:07.239Z,10
2018-03-22T07:57:47.651Z,10
2018-03-22T07:58:28.298Z,10
2018-03-22T07:59:09.196Z,10
2018-03-22T07:59:49.919Z,10
2018-03-22T08:00:30.575Z,10
2018-03-22T08:01:13.055Z,10
2018-03-22T08:08:09.276Z,10
2018-03-22T08:08:50.728Z,10
2018-03-22T08:09:31.734Z,15
2018-03-22T08:10:12.704Z,10
2018-03-22T08:10:53.240Z,10
2018-03-22T08:11:34.724Z,10
2018-03-22T08:12:17.139Z,10
2018-03-22T08:12:57.715Z,10
2018-03-22T08:13:38.270Z,10
2018-03-22T08:14:18.871Z,10
2018-03-22T08:14:59.594Z,10
2018-03-22T08:15:41.073Z,10
2018-03-22T08:16:21.603Z,10
2018-03-22T08:17:02.023Z,5
2018-03-22T08:17:42.782Z,5
2018-03-22T08:18:23.107Z,5
2018-03-22T08:19:05.208Z,5
2018-03-22T08:19:45.483Z,5
2018-03-22T08:20:26.027Z,5
2018-03-22T08:21:06.800Z,5
2018-03-22T08:21:47.232Z,5
2018-03-22T08:22:27.864Z,5
2018-03-22T08:23:08.425Z,5
2018-03-22T08:23:49.467Z,5
2018-03-22T08:24:30.908Z,5
2018-03-22T08:25:11.515Z,5
2018-03-22T08:25:51.978Z,10
2018-03-22T08:26:32.628Z,10
2018-03-22T08:27:13.343Z,5
2018-03-22T08:27:55.132Z,5
2018-03-22T08:28:36.674Z,5
2018-03-22T08:29:17.091Z,5
2018-03-22T08:29:58.015Z,5
2018-03-22T08:30:38.336Z,5
2018-03-22T08:31:19.452Z,5
2018-03-22T08:31:59.826Z,5
2018-03-22T08:32:40.323Z,10
2018-03-22T08:33:21.409Z,5
2018-03-22T08:34:02.804Z,5
2018-03-22T08:34:44.690Z,5
2018-03-22T08:35:26.942Z,5
2018-03-22T08:36:07.380Z,5
2018-03-22T08:36:47.753Z,5
2018-03-22T08:37:28.141Z,5
2018-03-22T08:38:09.599Z,5
2018-03-22T08:38:50.937Z,10
2018-03-22T08:39:31.635Z,10
2018-03-22T08:40:11.903Z,10
2018-03-22T08:40:52.512Z,10
2018-03-22T08:41:32.847Z,10
2018-03-22T08:42:13.536Z,10
2018-03-22T08:42:53.954Z,10
2018-03-22T08:43:34.342Z,10
2018-03-22T08:44:15.704Z,10
2018-03-22T08:44:59.665Z,10
2018-03-22T08:45:39.069Z,10
2018-03-22T08:46:19.522Z,10
2018-03-22T08:46:59.950Z,10
2018-03-22T08:47:41.648Z,10
2018-03-22T08:48:22.035Z,10
2018-03-22T08:49:02.536Z,10
2018-03-22T08:49:45.652Z,10
2018-03-22T08:50:27.237Z,5
2018-03-22T08:51:07.622Z,5
2018-03-22T08:51:48.353Z,5
2018-03-22T08:52:28.710Z,5
2018-03-22T08:53:09.939Z,10
2018-03-22T08:53:50.341Z,10
2018-03-22T08:54:30.739Z,10
2018-03-22T08:55:11.131Z,15
2018-03-22T08:55:52.611Z,15
2018-03-22T08:56:32.986Z,10
2018-03-22T08:57:13.419Z,15
2018-03-22T08:57:53.826Z,15
2018-03-22T08:58:35.034Z,15
2018-03-22T08:59:16.266Z,10
2018-03-22T08:59:56.608Z,10
2018-03-22T09:00:38.405Z,10
2018-03-22T09:01:18.824Z,10
2018-03-22T09:01:59.905Z,10
2018-03-22T09:02:41.520Z,10
2018-03-22T09:03:22.485Z,10
2018-03-22T09:04:02.978Z,10
2018-03-22T09:04:43.437Z,10
2018-03-22T09:05:25.044Z,10
2018-03-22T09:06:05.545Z,10
2018-03-22T09:06:46.023Z,10
2018-03-22T09:07:26.568Z,10
2018-03-22T09:08:06.978Z,10
2018-03-22T09:08:48.113Z,10
2018-03-22T09:09:31.316Z,10
2018-03-22T09:10:11.829Z,10
2018-03-22T09:10:52.240Z,10
2018-03-22T09:11:33.780Z,10
2018-03-22T09:12:14.172Z,10
2018-03-22T09:12:54.612Z,10
2018-03-22T09:13:35.775Z,10
2018-03-22T09:14:16.128Z,10
2018-03-22T09:14:56.531Z,10
2018-03-22T09:15:36.918Z,10
2018-03-22T09:16:17.320Z,10
2018-03-22T09:16:57.782Z,10
2018-03-22T09:17:38.411Z,10
2018-03-22T09:18:18.772Z,10
2018-03-22T09:18:59.176Z,10
2018-03-22T09:19:39.665Z,10
2018-03-22T09:20:21.200Z,10
2018-03-22T09:21:02.489Z,10
2018-03-22T09:21:42.796Z,10
2018-03-22T09:22:23.241Z,10
2018-03-22T09:23:03.842Z,15
2018-03-22T09:23:44.185Z,15
2018-03-22T09:24:24.551Z,15
2018-03-22T09:25:05.124Z,15
2018-03-22T09:25:46.132Z,15
2018-03-22T09:26:26.908Z,15
2018-03-22T09:27:07.917Z,10
2018-03-22T09:27:48.392Z,10
2018-03-22T09:28:29.042Z,15
2018-03-22T09:29:09.190Z,15
2018-03-22T09:29:49.619Z,15
2018-03-22T09:30:30.048Z,15
2018-03-22T09:31:10.512Z,15
2018-03-22T09:31:51.754Z,15
2018-03-22T09:32:32.326Z,10
2018-03-22T09:33:13.199Z,10
2018-03-22T09:33:53.690Z,10
2018-03-22T09:34:35.595Z,10
2018-03-22T09:35:17.122Z,10
2018-03-22T09:36:00.262Z,10
2018-03-22T09:36:40.619Z,15
2018-03-22T09:37:21.691Z,15
2018-03-22T09:38:02.359Z,10
2018-03-22T09:38:43.742Z,10
2018-03-22T09:39:24.152Z,10
2018-03-22T09:40:04.690Z,10
2018-03-22T09:40:45.270Z,10
2018-03-22T09:41:26.501Z,15
2018-03-22T09:42:06.937Z,15
2018-03-22T09:42:47.475Z,15
2018-03-22T09:43:27.912Z,10
2018-03-22T09:44:08.374Z,10
2018-03-22T09:44:49.720Z,10
2018-03-22T09:45:31.545Z,10
2018-03-22T09:46:12.590Z,10
2018-03-22T09:46:52.166Z,10
2018-03-22T09:47:34.590Z,10
2018-03-22T09:48:15.420Z,10
2018-03-22T09:48:56.572Z,10
2018-03-22T09:49:36.330Z,10
2018-03-22T09:50:17.654Z,10
2018-03-22T09:50:58.570Z,10
2018-03-22T09:51:39.916Z,10
2018-03-22T09:52:20.288Z,10
2018-03-22T09:53:00.863Z,10
2018-03-22T09:53:42.711Z,10
2018-03-22T09:54:25.883Z,10
2018-03-22T09:55:06.652Z,10
2018-03-22T09:55:48.614Z,10
2018-03-22T09:56:27.760Z,15
2018-03-22T09:57:08.416Z,10
2018-03-22T09:57:49.044Z,15
2018-03-22T09:58:29.495Z,15
2018-03-22T09:59:11.355Z,10
2018-03-22T09:59:51.117Z,10
2018-03-22T10:00:32.669Z,10
2018-03-22T10:01:12.564Z,15
2018-03-22T10:01:53.327Z,15
2018-03-22T10:02:33.992Z,15
2018-03-22T10:03:15.450Z,10
2018-03-22T10:04:00.548Z,10
2018-03-22T10:04:42.581Z,10
2018-03-22T10:05:23.272Z,10
2018-03-22T10:06:03.191Z,10
2018-03-22T10:06:43.760Z,10
2018-03-22T10:07:25.221Z,10
2018-03-22T10:08:08.604Z,10
2018-03-22T10:08:50.092Z,10
2018-03-22T10:46:56.306Z,20
2018-03-22T10:47:38.256Z,25
2018-03-22T10:48:17.608Z,25
2018-03-22T10:48:58.484Z,25
2018-03-22T10:49:39.053Z,20
2018-03-22T10:50:19.894Z,25
2018-03-22T10:51:00.907Z,25
2018-03-22T10:51:41.665Z,25
2018-03-22T10:52:22.002Z,25
2018-03-22T10:53:03.307Z,25
2018-03-22T10:53:44.636Z,25
2018-03-22T10:54:24.925Z,30
2018-03-22T10:55:05.658Z,30
2018-03-22T10:55:46.343Z,25
2018-03-22T10:56:26.998Z,25
2018-03-22T10:57:07.520Z,20
2018-03-22T10:57:48.642Z,25
2018-03-22T10:58:31.154Z,25
2018-03-22T10:59:11.366Z,25
2018-03-22T10:59:51.927Z,20
2018-03-22T11:00:33.470Z,20
2018-03-22T11:01:14.754Z,20
2018-03-22T11:01:56.420Z,25
2018-03-22T11:02:37.590Z,35
2018-03-22T11:03:19.116Z,30
2018-03-22T11:04:00.247Z,30
2018-03-22T11:04:41.621Z,30
2018-03-22T11:05:22.631Z,25
2018-03-22T11:06:04.018Z,25
2018-03-22T11:06:47.032Z,25
2018-03-22T11:07:30.115Z,25
2018-03-22T11:08:10.988Z,30
2018-03-22T11:08:58.812Z,25
2018-03-22T11:09:42.850Z,30
2018-03-22T11:10:24.377Z,30
2018-03-22T11:11:06.864Z,25
2018-03-22T11:11:47.188Z,25
2018-03-22T11:12:27.698Z,25
2018-03-22T11:13:08.840Z,20
2018-03-22T11:13:49.317Z,25
2018-03-22T11:14:29.974Z,35
2018-03-22T11:15:11.181Z,45
2018-03-22T11:15:52.017Z,45
2018-03-22T11:16:32.725Z,40
2018-03-22T11:17:13.023Z,30
2018-03-22T11:17:53.483Z,25
2018-03-22T11:18:35.467Z,25
2018-03-22T11:19:16.342Z,20
2018-03-22T11:19:57.010Z,25
2018-03-22T11:20:37.557Z,25
2018-03-22T11:21:17.972Z,30
2018-03-22T11:22:03.344Z,30
2018-03-22T11:22:44.089Z,35
2018-03-22T11:23:24.769Z,40
2018-03-22T11:24:05.668Z,50
2018-03-22T11:24:47.590Z,40
2018-03-22T11:25:28.128Z,30
2018-03-22T11:26:09.046Z,25
2018-03-22T11:26:51.395Z,30
2018-03-22T11:27:31.772Z,30
2018-03-22T11:28:16.194Z,30
2018-03-22T11:28:58.607Z,30
2018-03-22T11:29:39.027Z,25
2018-03-22T11:30:19.824Z,20
2018-03-22T11:31:00.904Z,25
2018-03-22T11:31:42.312Z,30
2018-03-22T11:32:23.072Z,30
2018-03-22T11:33:03.762Z,25
2018-03-22T11:33:44.567Z,20
2018-03-22T11:34:24.828Z,20
2018-03-22T11:35:06.056Z,20
2018-03-22T11:35:47.139Z,15
2018-03-22T11:36:27.423Z,20
2018-03-22T11:37:15.914Z,25
2018-03-22T11:37:55.538Z,25
2018-03-22T11:38:36.078Z,25
2018-03-22T11:39:22.891Z,20